Dallas City, Illinois
Current Conditions -  °F | °C
As of 10:35 AM on Tuesday 21 Oct 2014 (Local Time) from KFSW Reporting Station
Clear Clear  
Wind Chill: 57°   Ceiling: Unl
Heat Index: 57°   Visibility: 10mi
Dew Point: 45°   Wind: 7mph
Humidity: 63%   Direction: 50°NE
Pressure: 30.19"   Gusts: NA
Location:  40.64°N, 91.17°W
Report Text: KFSW 211535Z AUTO 05006KT 10SM CLR 14/07 A3019 RMK AO2
Loading
Personal Weather Stations






























Interactive Weather Map
Tropical Storm Tracking
New forecast layout! Learn more

10-Day Weather Forecast

Advertisements
Track Severe Weather on mobile